sensor_id;sensor_type;location;lat;lon;timestamp;temperature;humidity
64012;DHT22;50211;52.768;12.124;2022-08-06T00:00:25;13.50;99.90
64012;DHT22;50211;52.768;12.124;2022-08-06T00:02:51;13.50;99.90
64012;DHT22;50211;52.768;12.124;2022-08-06T00:05:16;13.40;99.90
64012;DHT22;50211;52.768;12.124;2022-08-06T00:07:42;13.40;99.90
64012;DHT22;50211;52.768;12.124;2022-08-06T00:10:08;13.40;99.90
64012;DHT22;50211;52.768;12.124;2022-08-06T00:12:33;13.40;99.90
64012;DHT22;50211;52.768;12.124;2022-08-06T00:15:01;13.40;99.90
64012;DHT22;50211;52.768;12.124;2022-08-06T00:17:26;13.40;99.90
64012;DHT22;50211;52.768;12.124;2022-08-06T00:19:52;13.40;99.90
64012;DHT22;50211;52.768;12.124;2022-08-06T00:22:17;13.40;99.90
64012;DHT22;50211;52.768;12.124;2022-08-06T00:24:43;13.40;99.90
64012;DHT22;50211;52.768;12.124;2022-08-06T00:27:08;13.40;99.90
64012;DHT22;50211;52.768;12.124;2022-08-06T00:29:34;13.40;99.90
64012;DHT22;50211;52.768;12.124;2022-08-06T00:31:59;13.40;99.90
64012;DHT22;50211;52.768;12.124;2022-08-06T00:34:25;13.40;99.90
64012;DHT22;50211;52.768;12.124;2022-08-06T00:36:50;13.40;99.90
64012;DHT22;50211;52.768;12.124;2022-08-06T00:39:15;13.40;99.90
64012;DHT22;50211;52.768;12.124;2022-08-06T00:41:41;13.30;99.90
64012;DHT22;50211;52.768;12.124;2022-08-06T00:44:07;13.40;99.90
64012;DHT22;50211;52.768;12.124;2022-08-06T00:46:33;13.40;99.90
64012;DHT22;50211;52.768;12.124;2022-08-06T00:48:58;13.40;99.90
64012;DHT22;50211;52.768;12.124;2022-08-06T00:51:24;13.30;99.90
64012;DHT22;50211;52.768;12.124;2022-08-06T00:53:50;13.30;99.90
64012;DHT22;50211;52.768;12.124;2022-08-06T00:56:16;13.30;99.90
64012;DHT22;50211;52.768;12.124;2022-08-06T00:58:41;13.30;99.90
64012;DHT22;50211;52.768;12.124;2022-08-06T01:01:10;13.30;99.90
64012;DHT22;50211;52.768;12.124;2022-08-06T01:03:36;13.30;99.90
64012;DHT22;50211;52.768;12.124;2022-08-06T01:06:02;13.20;99.90
64012;DHT22;50211;52.768;12.124;2022-08-06T01:08:27;13.20;99.90
64012;DHT22;50211;52.768;12.124;2022-08-06T01:10:53;13.20;99.90
64012;DHT22;50211;52.768;12.124;2022-08-06T01:13:18;13.30;99.90
64012;DHT22;50211;52.768;12.124;2022-08-06T01:15:51;13.20;99.90
64012;DHT22;50211;52.768;12.124;2022-08-06T01:18:30;13.20;99.90
64012;DHT22;50211;52.768;12.124;2022-08-06T01:21:17;13.20;99.90
64012;DHT22;50211;52.768;12.124;2022-08-06T01:26:43;13.20;99.90
64012;DHT22;50211;52.768;12.124;2022-08-06T01:29:22;13.20;99.90
64012;DHT22;50211;52.768;12.124;2022-08-06T01:32:06;13.10;99.90
64012;DHT22;50211;52.768;12.124;2022-08-06T01:34:40;13.10;99.90
64012;DHT22;50211;52.768;12.124;2022-08-06T01:39:57;13.10;99.90
64012;DHT22;50211;52.768;12.124;2022-08-06T01:42:25;13.20;99.90
64012;DHT22;50211;52.768;12.124;2022-08-06T01:44:54;13.20;99.90
64012;DHT22;50211;52.768;12.124;2022-08-06T01:47:22;13.30;99.90
64012;DHT22;50211;52.768;12.124;2022-08-06T01:49:53;13.20;99.90
64012;DHT22;50211;52.768;12.124;2022-08-06T01:52:22;13.10;99.90
64012;DHT22;50211;52.768;12.124;2022-08-06T01:54:50;13.00;99.90
64012;DHT22;50211;52.768;12.124;2022-08-06T01:57:18;13.00;99.90
64012;DHT22;50211;52.768;12.124;2022-08-06T01:59:48;12.90;99.90
64012;DHT22;50211;52.768;12.124;2022-08-06T02:02:18;12.80;99.90
64012;DHT22;50211;52.768;12.124;2022-08-06T02:04:45;12.70;99.90
64012;DHT22;50211;52.768;12.124;2022-08-06T02:07:13;12.70;99.90
64012;DHT22;50211;52.768;12.124;2022-08-06T02:09:43;12.70;99.90
64012;DHT22;50211;52.768;12.124;2022-08-06T02:12:11;12.70;99.90
64012;DHT22;50211;52.768;12.124;2022-08-06T02:14:42;12.70;99.90
64012;DHT22;50211;52.768;12.124;2022-08-06T02:17:11;12.80;99.90
64012;DHT22;50211;52.768;12.124;2022-08-06T02:19:44;12.60;99.90
64012;DHT22;50211;52.768;12.124;2022-08-06T02:22:11;12.70;99.90
64012;DHT22;50211;52.768;12.124;2022-08-06T02:24:38;12.80;99.90
64012;DHT22;50211;52.768;12.124;2022-08-06T02:27:04;12.70;99.90
64012;DHT22;50211;52.768;12.124;2022-08-06T02:29:31;12.50;99.90
64012;DHT22;50211;52.768;12.124;2022-08-06T02:31:57;12.50;99.90
64012;DHT22;50211;52.768;12.124;2022-08-06T02:34:22;12.40;99.90
64012;DHT22;50211;52.768;12.124;2022-08-06T02:37:13;12.40;99.90
64012;DHT22;50211;52.768;12.124;2022-08-06T02:39:48;12.40;99.90
64012;DHT22;50211;52.768;12.124;2022-08-06T02:42:33;12.40;99.90
64012;DHT22;50211;52.768;12.124;2022-08-06T02:45:05;12.40;99.90
64012;DHT22;50211;52.768;12.124;2022-08-06T02:50:03;12.20;99.90
64012;DHT22;50211;52.768;12.124;2022-08-06T02:55:07;12.20;99.90
64012;DHT22;50211;52.768;12.124;2022-08-06T02:57:38;12.10;99.90
64012;DHT22;50211;52.768;12.124;2022-08-06T03:00:08;12.10;99.90
64012;DHT22;50211;52.768;12.124;2022-08-06T03:02:36;12.00;99.90
64012;DHT22;50211;52.768;12.124;2022-08-06T03:05:06;12.10;99.90
64012;DHT22;50211;52.768;12.124;2022-08-06T03:07:33;12.10;99.90
64012;DHT22;50211;52.768;12.124;2022-08-06T03:10:01;12.00;99.90
64012;DHT22;50211;52.768;12.124;2022-08-06T03:12:27;12.00;99.90
64012;DHT22;50211;52.768;12.124;2022-08-06T03:14:54;12.00;99.90
64012;DHT22;50211;52.768;12.124;2022-08-06T03:17:21;12.00;99.90
64012;DHT22;50211;52.768;12.124;2022-08-06T03:19:48;12.00;99.90
64012;DHT22;50211;52.768;12.124;2022-08-06T03:22:16;12.00;99.90
64012;DHT22;50211;52.768;12.124;2022-08-06T03:24:42;12.10;99.90
64012;DHT22;50211;52.768;12.124;2022-08-06T03:27:11;12.00;99.90
64012;DHT22;50211;52.768;12.124;2022-08-06T03:29:38;11.90;99.90
64012;DHT22;50211;52.768;12.124;2022-08-06T03:32:07;11.90;99.90
64012;DHT22;50211;52.768;12.124;2022-08-06T03:34:34;11.90;99.90
64012;DHT22;50211;52.768;12.124;2022-08-06T03:37:02;12.00;99.90
64012;DHT22;50211;52.768;12.124;2022-08-06T03:39:30;12.00;99.90
64012;DHT22;50211;52.768;12.124;2022-08-06T03:41:57;12.00;99.90
64012;DHT22;50211;52.768;12.124;2022-08-06T03:44:22;12.00;99.90
64012;DHT22;50211;52.768;12.124;2022-08-06T03:47:51;11.90;99.90
64012;DHT22;50211;52.768;12.124;2022-08-06T03:50:20;11.90;99.90
64012;DHT22;50211;52.768;12.124;2022-08-06T03:52:48;11.90;99.90
64012;DHT22;50211;52.768;12.124;2022-08-06T03:55:20;11.90;99.90
64012;DHT22;50211;52.768;12.124;2022-08-06T03:57:49;11.90;99.90
64012;DHT22;50211;52.768;12.124;2022-08-06T04:00:17;11.80;99.90
64012;DHT22;50211;52.768;12.124;2022-08-06T04:02:46;11.80;99.90
64012;DHT22;50211;52.768;12.124;2022-08-06T04:05:15;11.80;99.90
64012;DHT22;50211;52.768;12.124;2022-08-06T04:07:42;11.80;99.90
64012;DHT22;50211;52.768;12.124;2022-08-06T04:10:08;11.80;99.90
64012;DHT22;50211;52.768;12.124;2022-08-06T04:12:34;11.80;99.90
64012;DHT22;50211;52.768;12.124;2022-08-06T04:15:00;11.80;99.90
64012;DHT22;50211;52.768;12.124;2022-08-06T04:17:26;11.80;99.90
64012;DHT22;50211;52.768;12.124;2022-08-06T04:19:53;11.80;99.90
64012;DHT22;50211;52.768;12.124;2022-08-06T04:22:19;11.80;99.90
64012;DHT22;50211;52.768;12.124;2022-08-06T04:24:46;11.80;99.90
64012;DHT22;50211;52.768;12.124;2022-08-06T04:27:13;11.80;99.90
64012;DHT22;50211;52.768;12.124;2022-08-06T04:29:40;11.80;99.90
64012;DHT22;50211;52.768;12.124;2022-08-06T04:32:06;11.70;99.90
64012;DHT22;50211;52.768;12.124;2022-08-06T04:34:34;11.80;99.90
64012;DHT22;50211;52.768;12.124;2022-08-06T04:37:01;11.80;99.90
64012;DHT22;50211;52.768;12.124;2022-08-06T04:39:27;11.80;99.90
64012;DHT22;50211;52.768;12.124;2022-08-06T04:41:54;11.80;99.90
64012;DHT22;50211;52.768;12.124;2022-08-06T04:44:20;11.80;99.90
64012;DHT22;50211;52.768;12.124;2022-08-06T04:46:46;11.90;99.90
64012;DHT22;50211;52.768;12.124;2022-08-06T04:49:15;11.90;99.90
64012;DHT22;50211;52.768;12.124;2022-08-06T04:51:48;11.90;99.90
64012;DHT22;50211;52.768;12.124;2022-08-06T04:54:14;12.00;99.90
64012;DHT22;50211;52.768;12.124;2022-08-06T04:56:41;12.00;99.90
64012;DHT22;50211;52.768;12.124;2022-08-06T04:59:07;12.00;99.90
64012;DHT22;50211;52.768;12.124;2022-08-06T05:01:33;12.10;99.90
64012;DHT22;50211;52.768;12.124;2022-08-06T05:03:59;12.10;99.90
64012;DHT22;50211;52.768;12.124;2022-08-06T05:06:45;12.10;99.90
64012;DHT22;50211;52.768;12.124;2022-08-06T05:09:15;12.20;99.90
64012;DHT22;50211;52.768;12.124;2022-08-06T05:11:48;12.30;99.90
64012;DHT22;50211;52.768;12.124;2022-08-06T05:14:24;12.40;99.90
64012;DHT22;50211;52.768;12.124;2022-08-06T05:16:52;12.40;99.90
64012;DHT22;50211;52.768;12.124;2022-08-06T05:19:28;12.50;99.90
64012;DHT22;50211;52.768;12.124;2022-08-06T05:21:55;12.50;99.90
64012;DHT22;50211;52.768;12.124;2022-08-06T05:24:22;12.60;99.90
64012;DHT22;50211;52.768;12.124;2022-08-06T05:26:48;12.60;99.90
64012;DHT22;50211;52.768;12.124;2022-08-06T05:29:19;12.70;99.90
64012;DHT22;50211;52.768;12.124;2022-08-06T05:31:44;12.80;99.90
64012;DHT22;50211;52.768;12.124;2022-08-06T05:34:11;12.90;99.90
64012;DHT22;50211;52.768;12.124;2022-08-06T05:36:37;13.00;99.90
64012;DHT22;50211;52.768;12.124;2022-08-06T05:39:04;13.10;99.90
64012;DHT22;50211;52.768;12.124;2022-08-06T05:41:30;13.10;99.90
64012;DHT22;50211;52.768;12.124;2022-08-06T05:43:56;13.30;99.90
64012;DHT22;50211;52.768;12.124;2022-08-06T05:46:24;13.40;99.90
64012;DHT22;50211;52.768;12.124;2022-08-06T05:54:42;13.60;99.90
64012;DHT22;50211;52.768;12.124;2022-08-06T05:57:19;13.70;99.90
64012;DHT22;50211;52.768;12.124;2022-08-06T05:59:52;13.80;99.90
64012;DHT22;50211;52.768;12.124;2022-08-06T06:02:19;13.90;99.90
64012;DHT22;50211;52.768;12.124;2022-08-06T06:04:46;14.10;99.90
64012;DHT22;50211;52.768;12.124;2022-08-06T06:07:13;14.20;99.90
64012;DHT22;50211;52.768;12.124;2022-08-06T06:09:41;14.20;99.90
64012;DHT22;50211;52.768;12.124;2022-08-06T06:12:07;14.30;99.90
64012;DHT22;50211;52.768;12.124;2022-08-06T06:14:38;14.30;99.90
64012;DHT22;50211;52.768;12.124;2022-08-06T06:26:05;14.80;99.90
64012;DHT22;50211;52.768;12.124;2022-08-06T06:29:02;14.90;99.90
64012;DHT22;50211;52.768;12.124;2022-08-06T06:31:47;15.00;99.90
64012;DHT22;50211;52.768;12.124;2022-08-06T06:34:30;15.00;99.90
64012;DHT22;50211;52.768;12.124;2022-08-06T06:37:09;15.20;99.90
64012;DHT22;50211;52.768;12.124;2022-08-06T06:42:36;15.30;99.90
64012;DHT22;50211;52.768;12.124;2022-08-06T06:45:18;15.40;99.90
64012;DHT22;50211;52.768;12.124;2022-08-06T06:48:08;15.70;99.90
64012;DHT22;50211;52.768;12.124;2022-08-06T06:50:45;15.70;99.90
64012;DHT22;50211;52.768;12.124;2022-08-06T06:53:11;15.70;99.90
64012;DHT22;50211;52.768;12.124;2022-08-06T06:55:38;15.80;99.90
64012;DHT22;50211;52.768;12.124;2022-08-06T06:58:08;15.80;99.90
64012;DHT22;50211;52.768;12.124;2022-08-06T07:00:36;15.90;99.90
64012;DHT22;50211;52.768;12.124;2022-08-06T07:03:03;16.00;99.90
64012;DHT22;50211;52.768;12.124;2022-08-06T07:05:31;16.00;99.90
64012;DHT22;50211;52.768;12.124;2022-08-06T07:07:58;16.10;99.90
64012;DHT22;50211;52.768;12.124;2022-08-06T07:10:25;16.20;99.90
64012;DHT22;50211;52.768;12.124;2022-08-06T07:12:52;16.40;99.90
64012;DHT22;50211;52.768;12.124;2022-08-06T07:15:19;16.40;99.90
64012;DHT22;50211;52.768;12.124;2022-08-06T07:17:47;16.40;99.90
64012;DHT22;50211;52.768;12.124;2022-08-06T07:20:18;16.50;99.90
64012;DHT22;50211;52.768;12.124;2022-08-06T07:22:45;16.60;99.90
64012;DHT22;50211;52.768;12.124;2022-08-06T07:25:13;16.60;99.90
64012;DHT22;50211;52.768;12.124;2022-08-06T07:27:42;16.60;99.90
64012;DHT22;50211;52.768;12.124;2022-08-06T07:30:10;16.70;99.90
64012;DHT22;50211;52.768;12.124;2022-08-06T07:32:37;16.90;99.90
64012;DHT22;50211;52.768;12.124;2022-08-06T07:35:04;17.10;99.90
64012;DHT22;50211;52.768;12.124;2022-08-06T07:37:31;17.30;99.90
64012;DHT22;50211;52.768;12.124;2022-08-06T07:39:57;17.40;99.90
64012;DHT22;50211;52.768;12.124;2022-08-06T07:42:26;17.60;99.90
64012;DHT22;50211;52.768;12.124;2022-08-06T07:44:55;17.80;99.90
64012;DHT22;50211;52.768;12.124;2022-08-06T07:47:27;17.80;99.90
64012;DHT22;50211;52.768;12.124;2022-08-06T07:49:56;18.00;99.90
64012;DHT22;50211;52.768;12.124;2022-08-06T07:52:23;18.30;99.90
64012;DHT22;50211;52.768;12.124;2022-08-06T07:54:50;18.40;99.90
64012;DHT22;50211;52.768;12.124;2022-08-06T07:57:17;18.60;99.90
64012;DHT22;50211;52.768;12.124;2022-08-06T07:59:43;18.80;99.90
64012;DHT22;50211;52.768;12.124;2022-08-06T08:02:09;19.00;99.90
64012;DHT22;50211;52.768;12.124;2022-08-06T08:04:36;18.60;99.90
64012;DHT22;50211;52.768;12.124;2022-08-06T08:07:22;18.60;99.90
64012;DHT22;50211;52.768;12.124;2022-08-06T08:09:49;18.80;99.90
64012;DHT22;50211;52.768;12.124;2022-08-06T08:12:16;18.80;99.90
64012;DHT22;50211;52.768;12.124;2022-08-06T08:14:47;18.70;99.90
64012;DHT22;50211;52.768;12.124;2022-08-06T08:17:14;19.00;99.90
64012;DHT22;50211;52.768;12.124;2022-08-06T08:19:40;19.10;99.90
64012;DHT22;50211;52.768;12.124;2022-08-06T08:22:09;19.20;99.90
64012;DHT22;50211;52.768;12.124;2022-08-06T08:24:37;18.90;99.90
64012;DHT22;50211;52.768;12.124;2022-08-06T08:27:06;18.90;99.90
64012;DHT22;50211;52.768;12.124;2022-08-06T08:29:37;18.70;99.90
64012;DHT22;50211;52.768;12.124;2022-08-06T08:32:04;18.70;99.90
64012;DHT22;50211;52.768;12.124;2022-08-06T08:34:30;19.30;99.90
64012;DHT22;50211;52.768;12.124;2022-08-06T08:36:56;19.60;99.90
64012;DHT22;50211;52.768;12.124;2022-08-06T08:39:21;19.80;99.90
64012;DHT22;50211;52.768;12.124;2022-08-06T08:41:51;19.80;99.90
64012;DHT22;50211;52.768;12.124;2022-08-06T08:44:25;20.30;99.90
64012;DHT22;50211;52.768;12.124;2022-08-06T08:46:51;19.80;99.90
64012;DHT22;50211;52.768;12.124;2022-08-06T08:52:02;19.60;99.90
64012;DHT22;50211;52.768;12.124;2022-08-06T08:54:33;19.20;99.90
64012;DHT22;50211;52.768;12.124;2022-08-06T08:56:59;19.20;99.90
64012;DHT22;50211;52.768;12.124;2022-08-06T08:59:25;19.30;99.90
64012;DHT22;50211;52.768;12.124;2022-08-06T09:01:51;20.00;99.90
64012;DHT22;50211;52.768;12.124;2022-08-06T09:04:18;20.60;99.90
64012;DHT22;50211;52.768;12.124;2022-08-06T09:06:44;20.60;99.90
64012;DHT22;50211;52.768;12.124;2022-08-06T09:09:10;20.10;99.90
64012;DHT22;50211;52.768;12.124;2022-08-06T09:11:36;20.30;99.90
64012;DHT22;50211;52.768;12.124;2022-08-06T09:14:03;20.70;99.90
64012;DHT22;50211;52.768;12.124;2022-08-06T09:16:31;20.40;99.90
64012;DHT22;50211;52.768;12.124;2022-08-06T09:18:57;19.40;99.90
64012;DHT22;50211;52.768;12.124;2022-08-06T09:21:22;19.00;99.90
64012;DHT22;50211;52.768;12.124;2022-08-06T09:23:48;19.50;99.90
64012;DHT22;50211;52.768;12.124;2022-08-06T09:26:13;20.20;99.90
64012;DHT22;50211;52.768;12.124;2022-08-06T09:28:41;20.90;99.90
64012;DHT22;50211;52.768;12.124;2022-08-06T09:31:15;20.90;99.90
64012;DHT22;50211;52.768;12.124;2022-08-06T09:33:44;21.00;99.90
64012;DHT22;50211;52.768;12.124;2022-08-06T09:36:17;21.20;99.90
64012;DHT22;50211;52.768;12.124;2022-08-06T09:38:47;20.90;99.90
64012;DHT22;50211;52.768;12.124;2022-08-06T09:41:14;20.80;99.90
64012;DHT22;50211;52.768;12.124;2022-08-06T09:43:40;21.00;99.90
64012;DHT22;50211;52.768;12.124;2022-08-06T09:46:06;21.10;99.90
64012;DHT22;50211;52.768;12.124;2022-08-06T09:48:33;21.10;99.90
64012;DHT22;50211;52.768;12.124;2022-08-06T09:50:59;21.00;99.90
64012;DHT22;50211;52.768;12.124;2022-08-06T09:53:25;21.10;99.90
64012;DHT22;50211;52.768;12.124;2022-08-06T09:55:53;21.50;99.90
64012;DHT22;50211;52.768;12.124;2022-08-06T09:58:45;21.40;99.90
64012;DHT22;50211;52.768;12.124;2022-08-06T10:01:17;21.20;99.90
64012;DHT22;50211;52.768;12.124;2022-08-06T10:03:43;21.00;99.90
64012;DHT22;50211;52.768;12.124;2022-08-06T10:06:11;21.30;99.90
64012;DHT22;50211;52.768;12.124;2022-08-06T10:08:38;21.80;99.90
64012;DHT22;50211;52.768;12.124;2022-08-06T10:11:04;22.40;99.90
64012;DHT22;50211;52.768;12.124;2022-08-06T10:13:30;22.30;99.90
64012;DHT22;50211;52.768;12.124;2022-08-06T10:15:59;22.30;99.90
64012;DHT22;50211;52.768;12.124;2022-08-06T10:18:37;22.20;99.90
64012;DHT22;50211;52.768;12.124;2022-08-06T10:23:46;23.00;99.90
64012;DHT22;50211;52.768;12.124;2022-08-06T10:26:22;22.90;99.90
64012;DHT22;50211;52.768;12.124;2022-08-06T10:28:51;21.90;99.90
64012;DHT22;50211;52.768;12.124;2022-08-06T10:31:17;21.80;99.90
64012;DHT22;50211;52.768;12.124;2022-08-06T10:34:08;22.30;99.90
64012;DHT22;50211;52.768;12.124;2022-08-06T10:36:44;22.70;99.90
64012;DHT22;50211;52.768;12.124;2022-08-06T10:39:11;22.50;99.90
64012;DHT22;50211;52.768;12.124;2022-08-06T10:41:39;22.90;99.90
64012;DHT22;50211;52.768;12.124;2022-08-06T10:44:06;23.10;99.90
64012;DHT22;50211;52.768;12.124;2022-08-06T10:46:32;23.00;99.90
64012;DHT22;50211;52.768;12.124;2022-08-06T10:48:58;23.40;99.90
64012;DHT22;50211;52.768;12.124;2022-08-06T10:51:24;23.30;99.90
64012;DHT22;50211;52.768;12.124;2022-08-06T10:53:52;23.00;99.90
64012;DHT22;50211;52.768;12.124;2022-08-06T10:56:18;23.00;99.90
64012;DHT22;50211;52.768;12.124;2022-08-06T10:58:44;22.80;99.90
64012;DHT22;50211;52.768;12.124;2022-08-06T11:01:31;22.60;99.90
64012;DHT22;50211;52.768;12.124;2022-08-06T11:04:21;22.10;99.90
64012;DHT22;50211;52.768;12.124;2022-08-06T11:10:08;22.50;99.90
64012;DHT22;50211;52.768;12.124;2022-08-06T11:12:49;23.40;99.90
64012;DHT22;50211;52.768;12.124;2022-08-06T11:15:16;23.70;99.90
64012;DHT22;50211;52.768;12.124;2022-08-06T11:17:46;22.60;99.90
64012;DHT22;50211;52.768;12.124;2022-08-06T11:22:56;21.30;99.90
64012;DHT22;50211;52.768;12.124;2022-08-06T11:25:41;21.50;99.90
64012;DHT22;50211;52.768;12.124;2022-08-06T11:33:04;23.60;99.90
64012;DHT22;50211;52.768;12.124;2022-08-06T11:37:59;24.20;99.90
64012;DHT22;50211;52.768;12.124;2022-08-06T11:40:25;23.30;99.80
64012;DHT22;50211;52.768;12.124;2022-08-06T11:42:51;22.50;99.90
64012;DHT22;50211;52.768;12.124;2022-08-06T11:45:18;22.40;99.90
64012;DHT22;50211;52.768;12.124;2022-08-06T11:48:06;22.70;99.90
64012;DHT22;50211;52.768;12.124;2022-08-06T11:50:32;23.40;99.90
64012;DHT22;50211;52.768;12.124;2022-08-06T11:52:58;23.70;99.90
64012;DHT22;50211;52.768;12.124;2022-08-06T11:55:24;24.10;99.70
64012;DHT22;50211;52.768;12.124;2022-08-06T12:00:58;23.70;99.90
64012;DHT22;50211;52.768;12.124;2022-08-06T12:03:37;23.90;99.90
64012;DHT22;50211;52.768;12.124;2022-08-06T12:06:18;23.60;97.50
64012;DHT22;50211;52.768;12.124;2022-08-06T12:09:05;22.90;97.80
64012;DHT22;50211;52.768;12.124;2022-08-06T12:11:30;22.50;97.70
64012;DHT22;50211;52.768;12.124;2022-08-06T12:13:56;22.40;98.90
64012;DHT22;50211;52.768;12.124;2022-08-06T12:16:34;22.40;99.00
64012;DHT22;50211;52.768;12.124;2022-08-06T12:19:02;22.80;99.80
64012;DHT22;50211;52.768;12.124;2022-08-06T12:21:28;23.30;99.90
64012;DHT22;50211;52.768;12.124;2022-08-06T12:23:54;24.00;97.60
64012;DHT22;50211;52.768;12.124;2022-08-06T12:26:22;24.50;96.80
64012;DHT22;50211;52.768;12.124;2022-08-06T12:28:48;25.20;96.40
64012;DHT22;50211;52.768;12.124;2022-08-06T12:31:28;25.50;97.00
64012;DHT22;50211;52.768;12.124;2022-08-06T12:33:54;25.10;96.40
64012;DHT22;50211;52.768;12.124;2022-08-06T12:36:20;24.30;96.20
64012;DHT22;50211;52.768;12.124;2022-08-06T12:38:54;23.70;96.10
64012;DHT22;50211;52.768;12.124;2022-08-06T12:41:19;23.20;98.20
64012;DHT22;50211;52.768;12.124;2022-08-06T12:43:45;23.10;97.20
64012;DHT22;50211;52.768;12.124;2022-08-06T12:46:11;22.80;98.70
64012;DHT22;50211;52.768;12.124;2022-08-06T12:48:37;22.50;98.90
64012;DHT22;50211;52.768;12.124;2022-08-06T12:51:12;22.40;98.40
64012;DHT22;50211;52.768;12.124;2022-08-06T12:53:51;22.30;99.90
64012;DHT22;50211;52.768;12.124;2022-08-06T12:56:18;21.90;97.90
64012;DHT22;50211;52.768;12.124;2022-08-06T12:58:44;21.70;99.90
64012;DHT22;50211;52.768;12.124;2022-08-06T13:01:13;21.60;98.30
64012;DHT22;50211;52.768;12.124;2022-08-06T13:03:42;21.60;99.20
64012;DHT22;50211;52.768;12.124;2022-08-06T13:06:09;21.60;99.20
64012;DHT22;50211;52.768;12.124;2022-08-06T13:08:35;21.40;99.40
64012;DHT22;50211;52.768;12.124;2022-08-06T13:11:02;21.40;99.90
64012;DHT22;50211;52.768;12.124;2022-08-06T13:16:09;21.30;99.90
64012;DHT22;50211;52.768;12.124;2022-08-06T13:18:36;21.40;99.80
64012;DHT22;50211;52.768;12.124;2022-08-06T13:21:02;22.00;99.90
64012;DHT22;50211;52.768;12.124;2022-08-06T13:23:37;23.00;99.10
64012;DHT22;50211;52.768;12.124;2022-08-06T13:26:15;23.70;97.70
64012;DHT22;50211;52.768;12.124;2022-08-06T13:29:10;24.10;95.50
64012;DHT22;50211;52.768;12.124;2022-08-06T13:31:38;23.50;95.90
64012;DHT22;50211;52.768;12.124;2022-08-06T13:34:08;22.80;97.50
64012;DHT22;50211;52.768;12.124;2022-08-06T13:36:40;22.10;97.50
64012;DHT22;50211;52.768;12.124;2022-08-06T13:39:19;21.70;98.60
64012;DHT22;50211;52.768;12.124;2022-08-06T13:41:45;21.60;98.60
64012;DHT22;50211;52.768;12.124;2022-08-06T13:44:27;21.60;99.00
64012;DHT22;50211;52.768;12.124;2022-08-06T13:46:53;21.50;99.80
64012;DHT22;50211;52.768;12.124;2022-08-06T13:49:18;21.70;99.60
64012;DHT22;50211;52.768;12.124;2022-08-06T13:51:44;21.80;98.80
64012;DHT22;50211;52.768;12.124;2022-08-06T13:54:09;22.50;99.90
64012;DHT22;50211;52.768;12.124;2022-08-06T13:56:35;23.40;98.30
64012;DHT22;50211;52.768;12.124;2022-08-06T13:59:00;23.50;95.20
64012;DHT22;50211;52.768;12.124;2022-08-06T14:01:26;23.20;95.10
64012;DHT22;50211;52.768;12.124;2022-08-06T14:03:52;23.70;99.50
64012;DHT22;50211;52.768;12.124;2022-08-06T14:06:17;24.70;98.40
64012;DHT22;50211;52.768;12.124;2022-08-06T14:08:43;25.30;93.80
64012;DHT22;50211;52.768;12.124;2022-08-06T14:11:08;25.20;94.70
64012;DHT22;50211;52.768;12.124;2022-08-06T14:13:34;25.30;92.80
64012;DHT22;50211;52.768;12.124;2022-08-06T14:15:59;25.70;94.20
64012;DHT22;50211;52.768;12.124;2022-08-06T14:18:26;26.30;94.60
64012;DHT22;50211;52.768;12.124;2022-08-06T14:20:52;26.80;93.50
64012;DHT22;50211;52.768;12.124;2022-08-06T14:23:17;27.20;91.60
64012;DHT22;50211;52.768;12.124;2022-08-06T14:25:44;26.90;92.40
64012;DHT22;50211;52.768;12.124;2022-08-06T14:28:09;27.50;92.40
64012;DHT22;50211;52.768;12.124;2022-08-06T14:30:35;27.80;88.10
64012;DHT22;50211;52.768;12.124;2022-08-06T14:33:02;27.30;88.90
64012;DHT22;50211;52.768;12.124;2022-08-06T14:35:29;26.90;92.70
64012;DHT22;50211;52.768;12.124;2022-08-06T14:37:54;27.50;90.90
64012;DHT22;50211;52.768;12.124;2022-08-06T14:40:21;27.60;90.70
64012;DHT22;50211;52.768;12.124;2022-08-06T14:43:05;27.40;90.80
64012;DHT22;50211;52.768;12.124;2022-08-06T14:45:49;26.60;91.50
64012;DHT22;50211;52.768;12.124;2022-08-06T14:48:14;26.00;91.40
64012;DHT22;50211;52.768;12.124;2022-08-06T14:50:40;25.30;92.20
64012;DHT22;50211;52.768;12.124;2022-08-06T14:53:06;25.20;93.40
64012;DHT22;50211;52.768;12.124;2022-08-06T14:55:31;25.20;92.80
64012;DHT22;50211;52.768;12.124;2022-08-06T14:57:57;25.40;93.40
64012;DHT22;50211;52.768;12.124;2022-08-06T15:00:22;25.40;89.50
64012;DHT22;50211;52.768;12.124;2022-08-06T15:02:48;25.40;90.30
64012;DHT22;50211;52.768;12.124;2022-08-06T15:05:15;25.20;90.10
64012;DHT22;50211;52.768;12.124;2022-08-06T15:07:41;25.10;86.10
64012;DHT22;50211;52.768;12.124;2022-08-06T15:10:08;25.20;87.00
64012;DHT22;50211;52.768;12.124;2022-08-06T15:12:33;25.30;89.10
64012;DHT22;50211;52.768;12.124;2022-08-06T15:14:59;25.50;87.80
64012;DHT22;50211;52.768;12.124;2022-08-06T15:17:24;25.00;87.20
64012;DHT22;50211;52.768;12.124;2022-08-06T15:19:50;24.80;87.60
64012;DHT22;50211;52.768;12.124;2022-08-06T15:22:15;24.80;85.40
64012;DHT22;50211;52.768;12.124;2022-08-06T15:24:41;24.50;85.80
64012;DHT22;50211;52.768;12.124;2022-08-06T15:27:06;24.00;88.60
64012;DHT22;50211;52.768;12.124;2022-08-06T15:29:32;23.90;92.30
64012;DHT22;50211;52.768;12.124;2022-08-06T15:31:57;23.80;91.40
64012;DHT22;50211;52.768;12.124;2022-08-06T15:34:23;23.60;88.80
64012;DHT22;50211;52.768;12.124;2022-08-06T15:36:48;22.90;90.60
64012;DHT22;50211;52.768;12.124;2022-08-06T15:39:14;22.40;91.40
64012;DHT22;50211;52.768;12.124;2022-08-06T15:41:40;22.30;92.50
64012;DHT22;50211;52.768;12.124;2022-08-06T15:44:07;22.00;92.40
64012;DHT22;50211;52.768;12.124;2022-08-06T15:46:34;22.10;95.70
64012;DHT22;50211;52.768;12.124;2022-08-06T15:49:00;22.20;93.70
64012;DHT22;50211;52.768;12.124;2022-08-06T15:51:26;22.40;93.80
64012;DHT22;50211;52.768;12.124;2022-08-06T15:53:52;22.40;93.70
64012;DHT22;50211;52.768;12.124;2022-08-06T15:56:19;22.10;94.80
64012;DHT22;50211;52.768;12.124;2022-08-06T15:58:45;22.20;94.50
64012;DHT22;50211;52.768;12.124;2022-08-06T16:01:10;22.20;95.20
64012;DHT22;50211;52.768;12.124;2022-08-06T16:03:37;22.20;95.50
64012;DHT22;50211;52.768;12.124;2022-08-06T16:06:03;22.20;95.40
64012;DHT22;50211;52.768;12.124;2022-08-06T16:08:29;22.40;96.60
64012;DHT22;50211;52.768;12.124;2022-08-06T16:10:54;22.70;96.60
64012;DHT22;50211;52.768;12.124;2022-08-06T16:13:20;23.00;95.40
64012;DHT22;50211;52.768;12.124;2022-08-06T16:15:50;23.20;96.90
64012;DHT22;50211;52.768;12.124;2022-08-06T16:18:21;23.60;95.70